Rincon, Arizona
Current Conditions -  °F | °C
As of 7:58 AM on Friday 24 Oct 2014 (Local Time) from KDMA Reporting Station
Clear Clear  
Wind Chill: 67°   Ceiling: Unl
Heat Index: 67°   Visibility: 10mi
Dew Point: 47°   Wind: 8mph
Humidity: 48%   Direction: 150°SSE
Pressure: 30.13"   Gusts: NA
Location:  32.2086°N, 110.558°W
Report Text: KDMA 241458Z AUTO 15007KT 10SM CLR 19/08 A3013 RMK AO2 SLP169 T01930081 52015 $
Loading
Personal Weather Stations






























Interactive Weather Map
Tropical Storm Tracking
New forecast layout! Learn more

10-Day Weather Forecast

Advertisements
Track Severe Weather on mobile